Time;durP1;ratioP1;P1;durP2;ratioP2;P2;SDS_P1;SDS_P2;PMS_P1;PMS_P2;Temp;Humidity;BMP_temperature;BMP_pressure;BME280_temperature;BME280_humidity;BME280_pressure;Samples;Min_cycle;Max_cycle;Signal;HPM_P1;HPM_P2
2022/09/12 00:01:58;;;;;;;986.67;888.15;;;;;;;;;;10389535;28;20472;-82
2022/09/12 00:06:58;;;;;;;998.78;899.55;;;;;;;;;;10388966;28;20028;-80
2022/09/12 00:11:58;;;;;;;1002.92;903.42;;;;;;;;;;10388110;28;20026;-81
2022/09/12 00:17:00;;;;;;;1025.10;924.80;;;;;;;;;;10372582;28;20442;-82
2022/09/12 00:22:01;;;;;;;1014.88;917.58;;;;;;;;;;10388403;28;20079;-80
2022/09/12 00:27:01;;;;;;;10.05;7.15;;;;;;;;;;10392896;28;20083;-77
2022/09/12 00:32:01;;;;;;;7.85;6.18;;;;;;;;;;10395328;28;20121;-80
2022/09/12 00:37:02;;;;;;;8.93;6.97;;;;;;;;;;10394778;28;20018;-84
2022/09/12 00:42:02;;;;;;;9.57;6.43;;;;;;;;;;10394258;28;20013;-78
2022/09/12 00:47:04;;;;;;;10.00;6.57;;;;;;;;;;10393939;28;20025;-77
2022/09/12 00:52:13;;;;;;;8.85;6.13;;;;;;;;;;10393683;28;20021;-77
2022/09/12 00:57:15;;;;;;;10.35;6.25;;;;;;;;;;10389303;28;20151;-80
2022/09/12 01:02:15;;;;;;;12.15;6.60;;;;;;;;;;10392914;28;20013;-79
2022/09/12 01:07:15;;;;;;;9.67;5.63;;;;;;;;;;10392557;28;20164;-77
2022/09/12 01:12:16;;;;;;;10.77;5.90;;;;;;;;;;10392789;28;20407;-81
2022/09/12 01:17:16;;;;;;;8.63;5.43;;;;;;;;;;10392203;28;20300;-85
2022/09/12 01:22:33;;;;;;;7.18;5.00;;;;;;;;;;10392615;28;20013;-76
2022/09/12 01:27:43;;;;;;;7.28;5.15;;;;;;;;;;10371613;28;20017;-84
2022/09/12 01:33:02;;;;;;;8.25;5.18;;;;;;;;;;10402031;28;20029;-83
2022/09/12 01:43:40;;;;;;;6.13;4.28;;;;;;;;;;10411183;28;20052;-85
2022/09/12 01:48:45;;;;;;;5.03;4.10;;;;;;;;;;10397422;28;20624;-84
2022/09/12 01:54:04;;;;;;;7.63;4.30;;;;;;;;;;10401846;28;20048;-84
2022/09/12 01:59:26;;;;;;;6.20;4.22;;;;;;;;;;10433090;28;20081;-85
2022/09/12 02:04:51;;;;;;;6.25;3.70;;;;;;;;;;10435225;28;20017;-77
2022/09/12 02:10:01;;;;;;;5.60;3.78;;;;;;;;;;10375271;28;20060;-85
2022/09/12 02:15:06;;;;;;;5.00;3.95;;;;;;;;;;10399130;28;20045;-82
2022/09/12 02:20:17;;;;;;;6.93;4.28;;;;;;;;;;10409783;28;20048;-83
2022/09/12 02:25:18;;;;;;;8.27;4.57;;;;;;;;;;10392021;28;20048;-85
2022/09/12 02:30:39;;;;;;;5.82;4.10;;;;;;;;;;10413005;28;20030;-84
2022/09/12 02:35:47;;;;;;;6.07;3.60;;;;;;;;;;10395585;28;20427;-85
2022/09/12 02:41:10;;;;;;;5.73;3.67;;;;;;;;;;10412421;28;20052;-83
2022/09/12 02:46:16;;;;;;;5.60;3.42;;;;;;;;;;10389988;28;20431;-82
2022/09/12 02:51:17;;;;;;;6.47;3.58;;;;;;;;;;10362955;28;20048;-81
2022/09/12 02:56:23;;;;;;;7.20;3.75;;;;;;;;;;10398998;28;20024;-86
2022/09/12 03:01:43;;;;;;;7.53;3.73;;;;;;;;;;10414893;28;20048;-83
2022/09/12 03:07:15;;;;;;;4.38;3.63;;;;;;;;;;10385729;28;20030;-84
2022/09/12 03:12:36;;;;;;;5.70;3.45;;;;;;;;;;10383979;28;20070;-83
2022/09/12 03:17:45;;;;;;;5.07;3.78;;;;;;;;;;10389858;28;20053;-82
2022/09/12 03:23:12;;;;;;;5.15;3.53;;;;;;;;;;10402898;28;20028;-78
2022/09/12 03:33:50;;;;;;;6.50;4.82;;;;;;;;;;10412994;28;20080;-81
2022/09/12 03:38:51;;;;;;;6.75;4.18;;;;;;;;;;10435185;28;20026;-79
2022/09/12 03:43:57;;;;;;;8.30;4.72;;;;;;;;;;10396602;28;20470;-84
2022/09/12 03:49:00;;;;;;;7.35;4.95;;;;;;;;;;10390247;28;20033;-83
2022/09/12 03:54:00;;;;;;;5.55;4.53;;;;;;;;;;10390111;28;20028;-84
2022/09/12 03:59:03;;;;;;;7.55;4.50;;;;;;;;;;10390098;28;20030;-82
2022/09/12 04:04:04;;;;;;;6.45;4.18;;;;;;;;;;10397135;28;20025;-82
2022/09/12 04:09:04;;;;;;;5.80;4.30;;;;;;;;;;10396395;28;20041;-84
2022/09/12 04:14:05;;;;;;;6.72;4.20;;;;;;;;;;10398687;28;20275;-83
2022/09/12 04:19:05;;;;;;;6.93;4.10;;;;;;;;;;10401012;28;20041;-84
2022/09/12 04:24:08;;;;;;;7.43;3.72;;;;;;;;;;10397322;28;20020;-83
2022/09/12 04:29:13;;;;;;;7.45;5.32;;;;;;;;;;10421036;28;20044;-83
2022/09/12 04:34:14;;;;;;;6.72;5.25;;;;;;;;;;10415639;28;20033;-83
2022/09/12 04:39:15;;;;;;;7.57;5.07;;;;;;;;;;10397966;28;20029;-83
2022/09/12 04:44:16;;;;;;;6.35;4.95;;;;;;;;;;10394612;28;20119;-82
2022/09/12 04:49:34;;;;;;;12.18;5.60;;;;;;;;;;10384590;28;20121;-85
2022/09/12 04:54:36;;;;;;;12.98;5.15;;;;;;;;;;10379240;28;20033;-83
2022/09/12 04:59:38;;;;;;;9.95;6.22;;;;;;;;;;10392868;28;20415;-83
2022/09/12 05:04:51;;;;;;;10.20;5.72;;;;;;;;;;10391377;28;20046;-83
2022/09/12 05:09:54;;;;;;;14.10;5.78;;;;;;;;;;10394288;28;20056;-83
2022/09/12 05:14:54;;;;;;;9.02;6.47;;;;;;;;;;10393398;28;20041;-83
2022/09/12 05:19:54;;;;;;;10.23;5.38;;;;;;;;;;10391511;28;20033;-83
2022/09/12 05:24:55;;;;;;;9.70;6.05;;;;;;;;;;10410184;28;20031;-83
2022/09/12 05:29:55;;;;;;;6.60;5.38;;;;;;;;;;10388284;28;20077;-83
2022/09/12 05:34:55;;;;;;;7.65;4.80;;;;;;;;;;10389040;28;20415;-81
2022/09/12 05:39:58;;;;;;;10.85;5.57;;;;;;;;;;10388227;28;20667;-81
2022/09/12 05:44:58;;;;;;;9.15;4.65;;;;;;;;;;10391790;28;20021;-82
2022/09/12 05:49:58;;;;;;;8.95;4.72;;;;;;;;;;10392116;28;20025;-83
2022/09/12 05:54:59;;;;;;;6.93;5.10;;;;;;;;;;10408296;28;20032;-80
2022/09/12 06:00:00;;;;;;;11.18;5.38;;;;;;;;;;10390598;28;20033;-82
2022/09/12 06:05:00;;;;;;;6.97;3.47;;;;;;;;;;10410283;28;20041;-81
2022/09/12 06:10:01;;;;;;;4.88;3.38;;;;;;;;;;10390180;28;20053;-81
2022/09/12 06:15:01;;;;;;;5.07;3.20;;;;;;;;;;10391055;28;20036;-81
2022/09/12 06:20:03;;;;;;;6.28;3.20;;;;;;;;;;10390036;28;20426;-83
2022/09/12 06:25:03;;;;;;;9.27;4.37;;;;;;;;;;10391041;28;20080;-81
2022/09/12 06:30:04;;;;;;;6.45;4.53;;;;;;;;;;10388471;28;20032;-82
2022/09/12 06:35:04;;;;;;;7.53;4.20;;;;;;;;;;10376227;28;20148;-80
2022/09/12 06:40:08;;;;;;;10.90;4.20;;;;;;;;;;10394331;28;20033;-82
2022/09/12 06:45:10;;;;;;;4.43;3.67;;;;;;;;;;10381396;28;20036;-83
2022/09/12 06:50:10;;;;;;;7.72;3.60;;;;;;;;;;10393690;28;20083;-82
2022/09/12 06:55:11;;;;;;;6.43;4.40;;;;;;;;;;10380941;28;20033;-82
2022/09/12 07:00:11;;;;;;;4.77;3.20;;;;;;;;;;10373553;28;20064;-84
2022/09/12 07:05:12;;;;;;;4.68;3.30;;;;;;;;;;10384931;28;20124;-85
2022/09/12 07:10:13;;;;;;;6.35;2.72;;;;;;;;;;10396499;28;20103;-79
2022/09/12 07:15:15;;;;;;;2.95;2.50;;;;;;;;;;10364166;28;20087;-82
2022/09/12 07:20:15;;;;;;;1.95;1.80;;;;;;;;;;10369983;28;20044;-80
2022/09/12 07:25:15;;;;;;;4.17;1.87;;;;;;;;;;10374768;28;20026;-76
2022/09/12 07:30:16;;;;;;;5.45;2.97;;;;;;;;;;10381983;28;20120;-77
2022/09/12 07:35:16;;;;;;;3.08;2.78;;;;;;;;;;10376907;28;20026;-77
2022/09/12 07:40:17;;;;;;;4.25;3.15;;;;;;;;;;10380845;28;20033;-79
2022/09/12 07:45:17;;;;;;;6.10;3.55;;;;;;;;;;10387907;28;20026;-79
2022/09/12 07:50:18;;;;;;;4.47;2.90;;;;;;;;;;10399961;28;20152;-79
2022/09/12 07:55:18;;;;;;;4.47;3.40;;;;;;;;;;10355017;28;20118;-80
2022/09/12 08:00:18;;;;;;;4.57;3.35;;;;;;;;;;10378814;28;20537;-82
2022/09/12 08:05:22;;;;;;;3.60;2.60;;;;;;;;;;10379102;28;20046;-77
2022/09/12 08:10:22;;;;;;;3.95;3.13;;;;;;;;;;10389913;28;20056;-79
2022/09/12 08:15:22;;;;;;;3.40;3.03;;;;;;;;;;10387395;28;20385;-82
2022/09/12 08:20:23;;;;;;;2.17;1.98;;;;;;;;;;10401400;28;20044;-80
2022/09/12 08:25:23;;;;;;;8.30;4.10;;;;;;;;;;10382056;28;20026;-77
2022/09/12 08:30:23;;;;;;;3.08;2.63;;;;;;;;;;10385455;28;20400;-74
2022/09/12 08:35:23;;;;;;;7.20;3.63;;;;;;;;;;10371765;28;20037;-75
2022/09/12 08:40:24;;;;;;;5.38;2.97;;;;;;;;;;10378081;28;20028;-76
2022/09/12 08:45:33;;;;;;;3.10;2.75;;;;;;;;;;10392595;28;20033;-82
2022/09/12 08:50:34;;;;;;;4.97;2.83;;;;;;;;;;10393161;28;20116;-76
2022/09/12 08:55:36;;;;;;;5.28;2.88;;;;;;;;;;10392925;28;20026;-76
2022/09/12 09:01:02;;;;;;;4.63;3.05;;;;;;;;;;10392910;28;20025;-81
2022/09/12 09:06:18;;;;;;;5.07;2.85;;;;;;;;;;10388261;28;20487;-77
2022/09/12 09:11:28;;;;;;;3.65;3.13;;;;;;;;;;10388941;28;20509;-77
2022/09/12 09:16:33;;;;;;;4.18;3.22;;;;;;;;;;10406461;28;20480;-80
2022/09/12 09:21:41;;;;;;;5.47;2.90;;;;;;;;;;10407178;28;20022;-77
2022/09/12 09:26:48;;;;;;;5.47;2.90;;;;;;;;;;10391906;28;20411;-76
2022/09/12 09:31:51;;;;;;;3.70;2.92;;;;;;;;;;10409189;28;20642;-76
2022/09/12 09:36:58;;;;;;;3.78;3.25;;;;;;;;;;10408676;28;20033;-77
2022/09/12 09:42:17;;;;;;;2.85;2.42;;;;;;;;;;10391209;28;20049;-76
2022/09/12 09:47:18;;;;;;;3.45;2.95;;;;;;;;;;10390624;28;20503;-80
2022/09/12 09:52:23;;;;;;;3.67;3.13;;;;;;;;;;10390485;28;20025;-77
2022/09/12 09:57:35;;;;;;;2.80;2.60;;;;;;;;;;10418316;28;20026;-76
2022/09/12 10:02:36;;;;;;;3.33;2.33;;;;;;;;;;10390234;28;20033;-77
2022/09/12 10:07:36;;;;;;;4.28;2.92;;;;;;;;;;10407813;28;20026;-75
2022/09/12 10:12:36;;;;;;;2.25;2.05;;;;;;;;;;10407847;28;20055;-78
2022/09/12 10:17:44;;;;;;;4.03;2.10;;;;;;;;;;10407319;28;20045;-78
2022/09/12 10:22:46;;;;;;;2.10;1.60;;;;;;;;;;10390191;28;20033;-78
2022/09/12 10:27:51;;;;;;;2.03;1.80;;;;;;;;;;10389253;28;20040;-83
2022/09/12 10:32:53;;;;;;;4.30;2.15;;;;;;;;;;10389121;28;20026;-77
2022/09/12 10:37:56;;;;;;;2.83;2.50;;;;;;;;;;10388969;28;20103;-78
2022/09/12 10:42:57;;;;;;;2.95;2.65;;;;;;;;;;10406287;28;20023;-77
2022/09/12 10:47:59;;;;;;;9.13;2.40;;;;;;;;;;10388941;28;20025;-76
2022/09/12 10:53:18;;;;;;;4.47;2.40;;;;;;;;;;10388764;28;20041;-76
2022/09/12 10:58:37;;;;;;;1.90;1.70;;;;;;;;;;10388529;28;20542;-82
2022/09/12 11:03:43;;;;;;;4.35;2.45;;;;;;;;;;10388547;28;20042;-76
2022/09/12 11:08:46;;;;;;;2.72;1.42;;;;;;;;;;10388380;28;20124;-77
2022/09/12 11:14:06;;;;;;;3.17;1.92;;;;;;;;;;10405374;28;20037;-77
2022/09/12 11:19:06;;;;;;;3.42;2.25;;;;;;;;;;10388328;28;20033;-76
2022/09/12 11:24:37;;;;;;;3.13;2.67;;;;;;;;;;10388032;28;20525;-80
2022/09/12 11:29:46;;;;;;;5.00;3.15;;;;;;;;;;10375572;28;20041;-80
2022/09/12 11:34:48;;;;;;;3.20;2.90;;;;;;;;;;10387528;28;20040;-77
2022/09/12 11:39:50;;;;;;;10.40;3.50;;;;;;;;;;10387487;28;20029;-85
2022/09/12 11:45:10;;;;;;;12.02;3.55;;;;;;;;;;10347413;28;20029;-79
2022/09/12 11:50:16;;;;;;;5.13;3.35;;;;;;;;;;10352629;28;20041;-77
2022/09/12 11:55:19;;;;;;;6.57;3.67;;;;;;;;;;10387302;28;20036;-80
2022/09/12 12:00:38;;;;;;;7.90;4.38;;;;;;;;;;10405142;28;20021;-81
2022/09/12 12:05:46;;;;;;;9.32;4.65;;;;;;;;;;10386894;28;20029;-78
2022/09/12 12:10:49;;;;;;;5.82;4.20;;;;;;;;;;10386597;28;20056;-76
2022/09/12 12:15:55;;;;;;;5.22;3.75;;;;;;;;;;10387266;28;20030;-76
2022/09/12 12:21:03;;;;;;;6.38;4.32;;;;;;;;;;10389252;28;20021;-80
2022/09/12 12:26:04;;;;;;;6.47;2.92;;;;;;;;;;10378289;28;20638;-76
2022/09/12 12:31:04;;;;;;;3.95;3.40;;;;;;;;;;10393359;28;20485;-76
2022/09/12 12:36:06;;;;;;;4.07;3.28;;;;;;;;;;10410609;28;20036;-76
2022/09/12 12:41:16;;;;;;;4.28;3.50;;;;;;;;;;10393547;28;20602;-75
2022/09/12 12:46:17;;;;;;;8.70;3.83;;;;;;;;;;10393737;28;20057;-80
2022/09/12 12:51:27;;;;;;;3.15;2.53;;;;;;;;;;10393457;28;20083;-75
2022/09/12 12:56:40;;;;;;;3.65;2.60;;;;;;;;;;10393401;28;20025;-79
2022/09/12 13:01:49;;;;;;;3.10;2.67;;;;;;;;;;10410599;28;20064;-76
2022/09/12 13:07:01;;;;;;;3.10;2.75;;;;;;;;;;10393347;28;20503;-78
2022/09/12 13:12:04;;;;;;;4.13;3.40;;;;;;;;;;10368249;28;20128;-76
2022/09/12 13:17:05;;;;;;;8.02;3.00;;;;;;;;;;10368333;28;20092;-75
2022/09/12 13:22:07;;;;;;;3.50;3.00;;;;;;;;;;10368446;28;20033;-78
2022/09/12 13:27:18;;;;;;;7.72;3.55;;;;;;;;;;10367848;28;20041;-75
2022/09/12 13:32:18;;;;;;;4.88;3.92;;;;;;;;;;10367108;28;20519;-80
2022/09/12 13:37:29;;;;;;;5.83;4.13;;;;;;;;;;10367104;28;20023;-79
2022/09/12 13:42:29;;;;;;;5.55;3.28;;;;;;;;;;10366490;28;20025;-75
2022/09/12 13:47:31;;;;;;;6.22;3.72;;;;;;;;;;10366485;28;20032;-79
2022/09/12 13:52:33;;;;;;;7.38;3.50;;;;;;;;;;10367045;28;20030;-79
2022/09/12 13:57:35;;;;;;;5.93;3.97;;;;;;;;;;10365593;28;20026;-75
2022/09/12 14:02:35;;;;;;;4.93;4.18;;;;;;;;;;10374304;28;20045;-77
2022/09/12 14:07:53;;;;;;;6.00;3.87;;;;;;;;;;10349291;28;20140;-78
2022/09/12 14:12:56;;;;;;;4.82;4.32;;;;;;;;;;10364678;28;20069;-75
2022/09/12 14:18:00;;;;;;;9.02;4.97;;;;;;;;;;10365280;28;20117;-79
2022/09/12 14:23:02;;;;;;;8.68;5.55;;;;;;;;;;10365035;28;20479;-75
2022/09/12 14:28:02;;;;;;;5.90;4.72;;;;;;;;;;10365922;28;20511;-75
2022/09/12 14:33:02;;;;;;;7.20;5.13;;;;;;;;;;10364787;28;20025;-83
2022/09/12 14:38:11;;;;;;;5.50;4.90;;;;;;;;;;10365891;28;20112;-79
2022/09/12 14:43:19;;;;;;;5.45;4.60;;;;;;;;;;10364766;28;20018;-80
2022/09/12 14:48:20;;;;;;;9.07;4.55;;;;;;;;;;10318698;28;20075;-82
2022/09/12 14:53:22;;;;;;;7.78;5.13;;;;;;;;;;10321079;28;20447;-82
2022/09/12 14:58:25;;;;;;;5.18;4.45;;;;;;;;;;10306170;28;20034;-83
2022/09/12 15:03:27;;;;;;;6.10;5.20;;;;;;;;;;10300060;28;20082;-81
2022/09/12 15:08:28;;;;;;;11.48;5.32;;;;;;;;;;10314247;28;20027;-84
2022/09/12 15:13:37;;;;;;;5.57;4.65;;;;;;;;;;10331453;28;20050;-84
2022/09/12 15:18:37;;;;;;;5.57;5.00;;;;;;;;;;10352811;28;20034;-80
2022/09/12 15:23:50;;;;;;;5.28;4.60;;;;;;;;;;10363126;28;20022;-87
2022/09/12 15:28:51;;;;;;;8.50;5.63;;;;;;;;;;10348466;28;20030;-81
2022/09/12 15:33:51;;;;;;;8.77;6.23;;;;;;;;;;10326681;28;20034;-80
2022/09/12 15:38:51;;;;;;;8.30;5.30;;;;;;;;;;10354954;28;20030;-78
2022/09/12 15:43:52;;;;;;;7.90;5.88;;;;;;;;;;10350519;28;20355;-87
2022/09/12 15:48:52;;;;;;;8.57;5.43;;;;;;;;;;10347683;28;20026;-82
2022/09/12 15:53:52;;;;;;;6.38;5.07;;;;;;;;;;10349654;28;20079;-81
2022/09/12 15:58:53;;;;;;;8.40;5.53;;;;;;;;;;10343994;28;20017;-80
2022/09/12 16:03:53;;;;;;;8.93;5.60;;;;;;;;;;10353214;28;20028;-81
2022/09/12 16:08:54;;;;;;;12.02;7.40;;;;;;;;;;10359456;28;20112;-87
2022/09/12 16:13:54;;;;;;;9.55;5.68;;;;;;;;;;10397004;28;20057;-80
2022/09/12 16:18:54;;;;;;;7.28;4.85;;;;;;;;;;10369752;28;20226;-84
2022/09/12 16:23:55;;;;;;;11.80;6.72;;;;;;;;;;10399356;28;20026;-80
2022/09/12 16:28:58;;;;;;;7.78;4.95;;;;;;;;;;10375316;28;20029;-82
2022/09/12 16:33:59;;;;;;;8.65;5.20;;;;;;;;;;10376080;28;20053;-77
2022/09/12 16:39:05;;;;;;;7.85;5.40;;;;;;;;;;10395938;28;20036;-79
2022/09/12 16:44:06;;;;;;;9.20;5.40;;;;;;;;;;10369744;28;20479;-81
2022/09/12 16:49:07;;;;;;;7.43;5.45;;;;;;;;;;10370728;28;20100;-84
2022/09/12 16:54:07;;;;;;;10.10;7.27;;;;;;;;;;10384854;28;20480;-81
2022/09/12 16:59:11;;;;;;;10.13;6.75;;;;;;;;;;10366735;28;20284;-79
2022/09/12 17:04:11;;;;;;;11.63;7.25;;;;;;;;;;10376674;28;20170;-79
2022/09/12 17:09:17;;;;;;;8.10;6.30;;;;;;;;;;10390667;28;20102;-79
2022/09/12 17:14:17;;;;;;;9.40;6.90;;;;;;;;;;10376721;28;20033;-80
2022/09/12 17:19:25;;;;;;;10.87;6.80;;;;;;;;;;10382807;28;20048;-84
2022/09/12 17:24:25;;;;;;;8.32;6.03;;;;;;;;;;10380275;28;20032;-80
2022/09/12 17:29:26;;;;;;;8.47;5.67;;;;;;;;;;10396823;28;20033;-79
2022/09/12 17:34:26;;;;;;;7.97;5.57;;;;;;;;;;10395517;28;20284;-79
2022/09/12 17:39:26;;;;;;;7.67;5.43;;;;;;;;;;10375723;28;20026;-80
2022/09/12 17:44:29;;;;;;;8.20;5.50;;;;;;;;;;10382347;28;20022;-79
2022/09/12 17:49:30;;;;;;;10.10;5.75;;;;;;;;;;10395101;28;20033;-79
2022/09/12 17:54:30;;;;;;;6.82;5.28;;;;;;;;;;10373238;28;20029;-81
2022/09/12 17:59:31;;;;;;;7.83;6.43;;;;;;;;;;10381730;28;20028;-82
2022/09/12 18:04:31;;;;;;;11.20;5.55;;;;;;;;;;10384465;28;20796;-82
2022/09/12 18:09:31;;;;;;;6.50;5.00;;;;;;;;;;10374658;28;20049;-85
2022/09/12 18:14:39;;;;;;;6.47;5.20;;;;;;;;;;10381513;28;20109;-81
2022/09/12 18:19:40;;;;;;;6.97;5.18;;;;;;;;;;10376823;28;20030;-82
2022/09/12 18:24:40;;;;;;;7.40;5.32;;;;;;;;;;10388625;28;20032;-85
2022/09/12 18:29:40;;;;;;;7.43;4.70;;;;;;;;;;10376088;28;20108;-82
2022/09/12 18:34:41;;;;;;;6.50;5.32;;;;;;;;;;10378036;28;20504;-82
2022/09/12 18:39:42;;;;;;;7.63;5.70;;;;;;;;;;10390225;28;20080;-82
2022/09/12 18:45:09;;;;;;;6.45;4.65;;;;;;;;;;10380544;28;20099;-82
2022/09/12 18:50:09;;;;;;;15.50;4.85;;;;;;;;;;10390025;28;20105;-82
2022/09/12 18:55:10;;;;;;;5.53;4.35;;;;;;;;;;10376169;28;20406;-81
2022/09/12 19:00:11;;;;;;;6.60;4.70;;;;;;;;;;10389180;28;20033;-82
2022/09/12 19:05:12;;;;;;;5.00;4.28;;;;;;;;;;10369110;28;20026;-78
2022/09/12 19:10:12;;;;;;;5.85;4.40;;;;;;;;;;10394575;28;20045;-81
2022/09/12 19:15:12;;;;;;;5.85;4.32;;;;;;;;;;10387022;28;20025;-82
2022/09/12 19:20:12;;;;;;;4.20;3.75;;;;;;;;;;10372612;28;20036;-82
2022/09/12 19:25:13;;;;;;;6.03;4.20;;;;;;;;;;10387075;28;20032;-82
2022/09/12 19:30:13;;;;;;;4.30;3.90;;;;;;;;;;10376479;28;20103;-82
2022/09/12 19:35:13;;;;;;;6.32;4.57;;;;;;;;;;10376515;28;20029;-78
2022/09/12 19:40:14;;;;;;;4.63;4.20;;;;;;;;;;10389171;28;20033;-79
2022/09/12 19:45:36;;;;;;;5.53;4.78;;;;;;;;;;10375088;28;20634;-85
2022/09/12 19:50:36;;;;;;;7.05;4.40;;;;;;;;;;10393195;28;20029;-74
2022/09/12 19:55:37;;;;;;;4.03;3.40;;;;;;;;;;10386112;28;20482;-82
2022/09/12 20:00:37;;;;;;;6.20;3.80;;;;;;;;;;10380594;28;20032;-77
2022/09/12 20:05:37;;;;;;;6.72;3.85;;;;;;;;;;10383438;28;20022;-82
2022/09/12 20:10:38;;;;;;;4.78;3.90;;;;;;;;;;10367047;28;20060;-80
2022/09/12 20:15:38;;;;;;;3.90;3.37;;;;;;;;;;10376193;28;20029;-82
2022/09/12 20:20:38;;;;;;;3.67;3.28;;;;;;;;;;10386885;28;20069;-76
2022/09/12 20:25:39;;;;;;;5.53;3.70;;;;;;;;;;10364486;28;20080;-81
2022/09/12 20:30:39;;;;;;;4.93;3.88;;;;;;;;;;10367298;28;20029;-83
2022/09/12 20:35:39;;;;;;;4.30;3.65;;;;;;;;;;10374747;28;20030;-80
2022/09/12 20:40:46;;;;;;;4.03;3.53;;;;;;;;;;10370907;28;20184;-83
2022/09/12 20:45:46;;;;;;;11.20;5.15;;;;;;;;;;10375131;28;20025;-80
2022/09/12 20:50:46;;;;;;;4.63;3.40;;;;;;;;;;10388713;28;20457;-83
2022/09/12 20:55:50;;;;;;;5.47;4.15;;;;;;;;;;10382181;28;20026;-80
2022/09/12 21:00:51;;;;;;;3.75;3.30;;;;;;;;;;10383131;28;20025;-79
2022/09/12 21:05:51;;;;;;;5.68;3.55;;;;;;;;;;10382255;28;20026;-83
2022/09/12 21:10:51;;;;;;;5.57;4.00;;;;;;;;;;10383305;28;20334;-80
2022/09/12 21:16:01;;;;;;;6.03;3.55;;;;;;;;;;10392479;28;20018;-81
2022/09/12 21:21:14;;;;;;;6.38;3.80;;;;;;;;;;10380109;28;20022;-83
2022/09/12 21:26:15;;;;;;;4.93;2.97;;;;;;;;;;10383423;28;20036;-83
2022/09/12 21:31:15;;;;;;;7.07;3.72;;;;;;;;;;10376695;28;20032;-80
2022/09/12 21:36:16;;;;;;;5.85;3.33;;;;;;;;;;10378545;28;20548;-79
2022/09/12 21:41:17;;;;;;;5.13;3.93;;;;;;;;;;10383144;28;20112;-79
2022/09/12 21:46:17;;;;;;;6.53;4.07;;;;;;;;;;10380781;28;20018;-79
2022/09/12 21:51:17;;;;;;;6.03;4.35;;;;;;;;;;10386102;28;20021;-80
2022/09/12 21:56:17;;;;;;;7.05;4.30;;;;;;;;;;10376105;28;20025;-79
2022/09/12 22:01:18;;;;;;;9.18;3.88;;;;;;;;;;10378635;28;20032;-79
2022/09/12 22:06:18;;;;;;;7.75;3.67;;;;;;;;;;10379896;28;20018;-83
2022/09/12 22:11:19;;;;;;;7.45;4.10;;;;;;;;;;10382326;28;20053;-81
2022/09/12 22:16:19;;;;;;;4.53;3.55;;;;;;;;;;10378769;28;20021;-79
2022/09/12 22:21:21;;;;;;;4.87;3.37;;;;;;;;;;10390211;28;20037;-81
2022/09/12 22:26:22;;;;;;;9.50;4.38;;;;;;;;;;10405313;28;20018;-83
2022/09/12 22:31:22;;;;;;;4.93;3.78;;;;;;;;;;10375605;28;20030;-78
2022/09/12 22:36:23;;;;;;;11.90;3.80;;;;;;;;;;10385581;28;20112;-82
2022/09/12 22:41:23;;;;;;;9.27;4.77;;;;;;;;;;10389801;28;20029;-78
2022/09/12 22:46:23;;;;;;;4.77;3.60;;;;;;;;;;10370363;28;20272;-78
2022/09/12 22:51:24;;;;;;;7.70;4.77;;;;;;;;;;10386465;28;20017;-78
2022/09/12 22:56:24;;;;;;;7.10;3.63;;;;;;;;;;10389057;28;20027;-79
2022/09/12 23:01:25;;;;;;;4.97;3.60;;;;;;;;;;10388719;28;20021;-80
2022/09/12 23:06:25;;;;;;;5.25;3.60;;;;;;;;;;10387911;28;20017;-82
2022/09/12 23:11:26;;;;;;;8.57;4.07;;;;;;;;;;10388542;28;20436;-78
2022/09/12 23:16:29;;;;;;;6.55;3.65;;;;;;;;;;10388294;28;20029;-78
2022/09/12 23:21:30;;;;;;;6.10;3.72;;;;;;;;;;10388726;28;20108;-80
2022/09/12 23:26:31;;;;;;;5.35;3.38;;;;;;;;;;10388223;28;20022;-83
2022/09/12 23:31:32;;;;;;;4.80;3.42;;;;;;;;;;10389698;28;20492;-86
2022/09/12 23:36:33;;;;;;;5.85;3.83;;;;;;;;;;10388756;28;20030;-77
2022/09/12 23:41:33;;;;;;;6.68;4.25;;;;;;;;;;10388558;28;20021;-78
2022/09/12 23:46:33;;;;;;;3.97;3.25;;;;;;;;;;10388359;28;20022;-82
2022/09/12 23:51:33;;;;;;;11.63;4.10;;;;;;;;;;10388341;28;20036;-78
2022/09/12 23:56:34;;;;;;;7.25;3.80;;;;;;;;;;10387986;28;20452;-78
